Time;durP1;ratioP1;P1;durP2;ratioP2;P2;SDS_P1;SDS_P2;PMS_P1;PMS_P2;Temp;Humidity;BMP_temperature;BMP_pressure;BME280_temperature;BME280_humidity;BME280_pressure;Samples;Min_cycle;Max_cycle;Signal;HPM_P1;HPM_P2
2022/07/22 00:02:20;;;;;;;29.17;8.65;;;;;;;18.53;100.00;98306.44;5058640;28;20044;-60
2022/07/22 00:04:45;;;;;;;32.72;9.70;;;;;;;18.55;100.00;98304.53;5059041;28;20028;-60
2022/07/22 00:07:11;;;;;;;38.53;9.95;;;;;;;18.66;100.00;98302.00;5058397;28;20072;-61
2022/07/22 00:09:36;;;;;;;30.88;8.73;;;;;;;18.44;100.00;98301.78;5059031;28;20983;-62
2022/07/22 00:12:02;;;;;;;40.45;10.23;;;;;;;18.26;100.00;98296.81;5058088;28;20047;-61
2022/07/22 00:14:27;;;;;;;33.17;9.00;;;;;;;18.52;100.00;98294.19;5059351;28;20236;-60
2022/07/22 00:16:53;;;;;;;33.97;9.48;;;;;;;18.48;100.00;98290.91;5058972;28;20036;-61
2022/07/22 00:19:18;;;;;;;36.58;9.50;;;;;;;18.29;100.00;98299.25;5058858;28;20039;-61
2022/07/22 00:21:44;;;;;;;36.78;9.60;;;;;;;18.21;100.00;98298.91;5057601;28;20153;-61
2022/07/22 00:24:09;;;;;;;29.85;9.38;;;;;;;18.01;100.00;98297.63;5059533;28;20065;-61
2022/07/22 00:26:35;;;;;;;41.42;10.60;;;;;;;17.85;100.00;98295.16;5058414;28;20128;-61
2022/07/22 00:29:00;;;;;;;35.40;9.10;;;;;;;18.20;100.00;98293.75;5059182;28;20382;-61
2022/07/22 00:31:25;;;;;;;29.48;9.13;;;;;;;18.07;100.00;98293.72;5057540;28;20422;-61
2022/07/22 00:33:51;;;;;;;34.42;9.77;;;;;;;18.32;100.00;98297.34;5058732;28;20082;-61
2022/07/22 00:36:16;;;;;;;38.50;10.15;;;;;;;18.20;100.00;98297.22;5058574;28;20039;-60
2022/07/22 00:38:42;;;;;;;30.05;8.77;;;;;;;17.75;100.00;98309.84;5063257;28;20112;-60
2022/07/22 00:41:07;;;;;;;31.35;8.90;;;;;;;18.17;100.00;98299.22;5061160;28;20271;-61
2022/07/22 00:43:50;;;;;;;30.60;8.93;;;;;;;18.05;100.00;98301.75;5063046;28;20356;-61
2022/07/22 00:46:15;;;;;;;30.98;8.88;;;;;;;17.35;100.00;98312.44;5061985;28;20094;-61
2022/07/22 00:48:41;;;;;;;30.60;9.05;;;;;;;17.65;100.00;98311.41;5061695;28;20029;-63
2022/07/22 00:51:09;;;;;;;28.38;7.95;;;;;;;18.35;100.00;98302.44;5061565;28;20761;-60
2022/07/22 00:53:35;;;;;;;40.25;9.95;;;;;;;17.41;100.00;98305.94;5060385;28;20187;-61
2022/07/22 00:56:03;;;;;;;30.77;9.07;;;;;;;17.61;100.00;98299.34;5062123;28;20040;-61
2022/07/22 00:58:28;;;;;;;34.40;9.60;;;;;;;17.83;100.00;98291.75;5060683;28;20032;-60
2022/07/22 01:00:54;;;;;;;34.67;9.18;;;;;;;17.60;100.00;98297.66;5061197;28;20033;-61
2022/07/22 01:03:19;;;;;;;33.83;10.00;;;;;;;17.70;100.00;98301.41;5062488;28;20020;-61
2022/07/22 01:05:45;;;;;;;37.08;9.65;;;;;;;17.92;100.00;98296.44;5061183;28;20037;-60
2022/07/22 01:08:10;;;;;;;32.67;9.48;;;;;;;17.87;100.00;98295.06;5061989;28;20840;-60
2022/07/22 01:10:36;;;;;;;44.67;10.07;;;;;;;18.11;100.00;98289.94;5060594;28;20033;-61
2022/07/22 01:13:01;;;;;;;38.08;9.43;;;;;;;17.98;100.00;98289.91;5061819;28;20035;-62
2022/07/22 01:15:27;;;;;;;30.20;9.00;;;;;;;17.91;100.00;98289.44;5061260;28;20743;-61
2022/07/22 01:17:52;;;;;;;34.70;9.82;;;;;;;17.73;100.00;98298.56;5060727;28;20056;-61
2022/07/22 01:20:17;;;;;;;39.75;9.90;;;;;;;17.54;100.00;98297.13;5061072;28;20024;-61
2022/07/22 01:22:44;;;;;;;40.33;10.18;;;;;;;17.50;100.00;98300.91;5061841;28;20036;-60
2022/07/22 01:25:10;;;;;;;36.90;9.70;;;;;;;17.50;100.00;98303.53;5061259;28;20013;-62
2022/07/22 01:27:36;;;;;;;36.83;8.75;;;;;;;17.91;100.00;98300.00;5062745;28;20150;-61
2022/07/22 01:30:03;;;;;;;55.22;11.02;;;;;;;17.69;100.00;98304.97;5060766;28;20115;-61
2022/07/22 01:32:29;;;;;;;37.15;8.95;;;;;;;17.89;100.00;98288.72;5060592;28;20131;-60
2022/07/22 01:34:54;;;;;;;37.92;9.90;;;;;;;18.04;100.00;98293.94;5061400;28;20451;-63
2022/07/22 01:37:19;;;;;;;41.80;10.63;;;;;;;16.88;100.00;98303.09;5057651;28;20039;-61
2022/07/22 01:39:45;;;;;;;33.15;9.55;;;;;;;16.89;100.00;98299.50;5059497;28;20036;-61
2022/07/22 01:42:10;;;;;;;32.08;9.52;;;;;;;17.01;100.00;98293.47;5058111;28;20033;-63
2022/07/22 01:44:36;;;;;;;42.38;10.60;;;;;;;17.42;100.00;98297.06;5060556;28;20437;-61
2022/07/22 01:47:01;;;;;;;40.05;10.20;;;;;;;16.91;100.00;98302.91;5060939;28;20040;-61
2022/07/22 01:49:26;;;;;;;36.53;10.00;;;;;;;16.99;100.00;98302.44;5059935;28;20748;-61
2022/07/22 01:51:52;;;;;;;36.15;10.05;;;;;;;17.37;100.00;98300.00;5060639;28;20028;-61
2022/07/22 01:54:18;;;;;;;36.70;9.57;;;;;;;17.39;100.00;98299.88;5060606;28;20029;-61
2022/07/22 01:56:43;;;;;;;37.28;9.27;;;;;;;17.26;100.00;98297.19;5060460;28;20148;-60
2022/07/22 01:59:08;;;;;;;38.50;10.00;;;;;;;16.99;100.00;98310.34;5060153;28;20063;-61
2022/07/22 02:01:34;;;;;;;32.95;9.75;;;;;;;16.89;100.00;98310.03;5060143;28;20066;-61
2022/07/22 02:03:59;;;;;;;38.70;10.18;;;;;;;17.01;100.00;98297.91;5061558;28;20021;-61
2022/07/22 02:06:24;;;;;;;35.40;10.20;;;;;;;16.69;100.00;98314.72;5059213;28;20042;-60
2022/07/22 02:08:50;;;;;;;31.58;9.68;;;;;;;16.99;100.00;98316.44;5060960;28;20474;-61
2022/07/22 02:11:15;;;;;;;37.90;10.20;;;;;;;16.74;100.00;98315.31;5059720;28;20278;-62
2022/07/22 02:13:41;;;;;;;39.80;10.50;;;;;;;16.78;100.00;98313.31;5059703;28;20124;-61
2022/07/22 02:16:06;;;;;;;32.13;9.35;;;;;;;16.74;100.00;98312.66;5061414;28;20044;-61
2022/07/22 02:18:31;;;;;;;39.53;9.60;;;;;;;16.89;100.00;98304.75;5060380;28;20111;-61
2022/07/22 02:20:57;;;;;;;32.00;9.88;;;;;;;16.65;100.00;98307.97;5060201;28;20032;-60
2022/07/22 02:23:22;;;;;;;34.22;9.60;;;;;;;16.91;100.00;98308.19;5061791;28;20089;-61
2022/07/22 02:25:47;;;;;;;36.47;10.32;;;;;;;16.70;100.00;98312.94;5059990;28;20089;-61
2022/07/22 02:28:13;;;;;;;33.83;10.52;;;;;;;16.52;100.00;98312.25;5059965;28;20649;-61
2022/07/22 02:30:39;;;;;;;38.88;9.98;;;;;;;16.88;100.00;98311.00;5059111;28;20403;-60
2022/07/22 02:33:05;;;;;;;34.40;10.10;;;;;;;16.96;100.00;98306.09;5060215;28;20079;-60
2022/07/22 02:35:30;;;;;;;36.70;10.77;;;;;;;16.61;100.00;98319.59;5059770;28;20067;-60
2022/07/22 02:37:56;;;;;;;41.80;10.77;;;;;;;16.45;100.00;98326.72;5059855;28;20052;-61
2022/07/22 02:40:21;;;;;;;38.90;10.60;;;;;;;16.52;100.00;98318.38;5059383;28;20474;-62
2022/07/22 02:42:46;;;;;;;40.92;11.35;;;;;;;16.51;100.00;98323.75;5060818;28;20684;-61
2022/07/22 02:45:12;;;;;;;36.45;10.68;;;;;;;16.40;100.00;98326.19;5059161;28;20036;-62
2022/07/22 02:47:49;;;;;;;36.42;10.57;;;;;;;16.13;100.00;98322.44;5060208;28;20098;-61
2022/07/22 02:50:15;;;;;;;42.35;10.88;;;;;;;16.05;100.00;98329.09;5058816;28;20143;-62
2022/07/22 02:52:40;;;;;;;35.50;10.10;;;;;;;16.07;100.00;98333.31;5060976;28;20161;-61
2022/07/22 02:55:06;;;;;;;39.65;11.07;;;;;;;16.10;100.00;98333.16;5059691;28;20090;-60
2022/07/22 02:57:31;;;;;;;32.15;10.65;;;;;;;15.90;100.00;98334.31;5059614;28;20620;-61
2022/07/22 02:59:57;;;;;;;39.47;10.88;;;;;;;16.08;100.00;98336.78;5058921;28;20028;-61
2022/07/22 03:02:22;;;;;;;35.88;10.10;;;;;;;15.98;100.00;98333.84;5060254;28;20037;-62
2022/07/22 03:04:47;;;;;;;40.03;10.75;;;;;;;16.01;100.00;98328.41;5059605;28;20431;-63
2022/07/22 03:07:13;;;;;;;44.67;11.13;;;;;;;16.26;100.00;98327.81;5058628;28;20135;-62
2022/07/22 03:09:38;;;;;;;28.40;9.20;;;;;;;16.26;100.00;98325.19;5060325;28;20297;-61
2022/07/22 03:12:04;;;;;;;47.20;11.70;;;;;;;16.03;100.00;98328.31;5058416;28;20643;-61
2022/07/22 03:14:29;;;;;;;33.70;10.32;;;;;;;15.85;100.00;98333.72;5059374;28;20032;-61
2022/07/22 03:16:54;;;;;;;34.00;10.45;;;;;;;15.96;100.00;98333.09;5060055;28;20074;-62
2022/07/22 03:19:20;;;;;;;38.15;10.85;;;;;;;15.71;100.00;98329.19;5059547;28;20023;-61
2022/07/22 03:21:45;;;;;;;36.17;10.60;;;;;;;15.76;100.00;98331.59;5058335;28;20067;-61
2022/07/22 03:24:10;;;;;;;39.80;11.07;;;;;;;15.80;100.00;98333.97;5059147;28;20115;-62
2022/07/22 03:26:36;;;;;;;33.45;9.45;;;;;;;16.04;100.00;98333.50;5059217;28;20044;-61
2022/07/22 03:29:01;;;;;;;33.85;10.50;;;;;;;15.77;100.00;98331.53;5059398;28;20093;-61
2022/07/22 03:31:27;;;;;;;42.38;10.48;;;;;;;15.82;100.00;98333.88;5059532;28;20591;-60
2022/07/22 03:33:52;;;;;;;40.75;10.65;;;;;;;15.63;100.00;98331.41;5059329;28;20557;-60
2022/07/22 03:36:17;;;;;;;40.85;10.82;;;;;;;15.63;100.00;98338.47;5058802;28;20577;-62
2022/07/22 03:38:43;;;;;;;39.20;10.57;;;;;;;15.55;100.00;98337.13;5060455;28;20077;-63
2022/07/22 03:41:09;;;;;;;40.50;10.82;;;;;;;15.46;100.00;98342.88;5059217;28;20071;-61
2022/07/22 03:43:34;;;;;;;44.70;11.23;;;;;;;15.69;100.00;98343.38;5058720;28;20066;-61
2022/07/22 03:46:00;;;;;;;34.35;10.30;;;;;;;15.76;100.00;98342.13;5058925;28;20111;-60
2022/07/22 03:48:25;;;;;;;41.90;11.32;;;;;;;15.50;100.00;98339.16;5059211;28;20717;-61
2022/07/22 03:50:51;;;;;;;36.00;11.02;;;;;;;15.52;100.00;98337.28;5057930;28;20045;-61
2022/07/22 03:53:17;;;;;;;35.42;10.45;;;;;;;15.57;100.00;98345.75;5059256;28;20021;-62
2022/07/22 03:55:42;;;;;;;40.90;10.63;;;;;;;15.60;100.00;98340.34;5058512;28;20056;-61
2022/07/22 03:58:08;;;;;;;34.08;10.40;;;;;;;15.68;100.00;98353.06;5058906;28;20021;-60
2022/07/22 04:00:33;;;;;;;36.53;10.30;;;;;;;15.81;100.00;98353.25;5057862;28;20048;-61
2022/07/22 04:02:59;;;;;;;33.63;9.85;;;;;;;15.97;100.00;98348.81;5059332;28;20028;-62
2022/07/22 04:05:24;;;;;;;38.00;9.98;;;;;;;16.45;100.00;98339.88;5058405;28;20127;-61
2022/07/22 04:07:49;;;;;;;38.78;9.80;;;;;;;16.66;100.00;98335.97;5058480;28;20625;-63
2022/07/22 04:10:15;;;;;;;46.75;10.60;;;;;;;16.34;100.00;98335.28;5058533;28;20115;-61
2022/07/22 04:12:41;;;;;;;31.33;9.95;;;;;;;16.21;100.00;98344.81;5059066;28;20387;-61
2022/07/22 04:15:07;;;;;;;45.35;10.70;;;;;;;16.10;100.00;98338.41;5058595;28;20052;-61
2022/07/22 04:17:33;;;;;;;36.50;10.40;;;;;;;16.44;100.00;98336.41;5058252;28;20024;-61
2022/07/22 04:20:00;;;;;;;53.05;10.50;;;;;;;17.03;100.00;98327.63;5057829;28;20058;-62
2022/07/22 04:22:26;;;;;;;36.53;10.10;;;;;;;16.70;100.00;98320.84;5058121;28;20107;-61
2022/07/22 04:24:52;;;;;;;35.78;9.80;;;;;;;16.67;100.00;98326.28;5058512;28;20020;-62
2022/07/22 04:27:17;;;;;;;43.75;10.93;;;;;;;16.58;100.00;98327.72;5059148;28;20098;-60
2022/07/22 04:29:42;;;;;;;31.52;9.40;;;;;;;17.10;100.00;98328.94;5059515;28;20225;-62
2022/07/22 04:32:08;;;;;;;33.70;10.40;;;;;;;16.65;100.00;98318.50;5057767;28;20051;-61
2022/07/22 04:34:34;;;;;;;35.28;10.40;;;;;;;16.44;100.00;98331.16;5058727;28;20454;-61
2022/07/22 04:37:00;;;;;;;34.45;9.45;;;;;;;17.03;100.00;98328.47;5058544;28;20123;-60
2022/07/22 04:39:25;;;;;;;36.85;10.18;;;;;;;17.47;100.00;98316.91;5058107;28;20066;-60
2022/07/22 04:41:50;;;;;;;32.92;10.00;;;;;;;17.66;100.00;98311.31;5058174;28;20116;-61
2022/07/22 04:44:16;;;;;;;30.10;10.10;;;;;;;16.94;100.00;98318.50;5059076;28;20557;-62
2022/07/22 04:46:41;;;;;;;30.45;10.15;;;;;;;17.19;100.00;98314.34;5059531;28;20063;-63
2022/07/22 04:49:06;;;;;;;33.60;10.25;;;;;;;17.46;100.00;98314.38;5058311;28;20028;-61
2022/07/22 04:51:32;;;;;;;35.67;10.20;;;;;;;17.39;100.00;98313.94;5057516;28;20040;-62
2022/07/22 04:53:57;;;;;;;31.52;9.90;;;;;;;17.60;100.00;98311.69;5058698;28;20028;-60
2022/07/22 04:56:22;;;;;;;36.05;10.18;;;;;;;17.67;100.00;98313.00;5057600;28;20032;-61
2022/07/22 04:58:48;;;;;;;37.53;10.13;;;;;;;17.54;100.00;98312.94;5059042;28;20104;-62
2022/07/22 05:01:13;;;;;;;31.00;10.00;;;;;;;17.66;100.00;98315.72;5055293;28;20094;-61
2022/07/22 05:03:40;;;;;;;34.92;9.88;;;;;;;17.91;100.00;98304.44;5059146;28;20048;-61
2022/07/22 05:06:05;;;;;;;31.20;10.48;;;;;;;18.61;100.00;98296.19;5058031;28;20088;-61
2022/07/22 05:08:31;;;;;;;35.85;10.65;;;;;;;19.04;100.00;98295.88;5057060;28;20479;-61
2022/07/22 05:10:56;;;;;;;32.05;9.68;;;;;;;18.98;100.00;98301.56;5057121;28;20125;-61
2022/07/22 05:13:21;;;;;;;36.35;10.18;;;;;;;19.58;100.00;98297.28;5057698;28;20127;-62
2022/07/22 05:15:47;;;;;;;30.50;9.88;;;;;;;19.76;100.00;98292.47;5057354;28;20044;-63
2022/07/22 05:18:12;;;;;;;32.97;9.52;;;;;;;20.34;100.00;98296.97;5058430;28;20033;-61
2022/07/22 05:20:37;;;;;;;33.40;10.50;;;;;;;19.25;100.00;98297.94;5057125;28;20067;-61
2022/07/22 05:23:03;;;;;;;34.78;10.25;;;;;;;19.27;100.00;98296.84;5058457;28;20024;-61
2022/07/22 05:25:28;;;;;;;30.08;9.38;;;;;;;19.96;100.00;98288.34;5060780;28;20036;-62
2022/07/22 05:27:54;;;;;;;30.98;10.00;;;;;;;19.34;100.00;98291.97;5061909;28;20059;-61
2022/07/22 05:30:20;;;;;;;31.08;9.93;;;;;;;19.13;100.00;98296.16;5060608;28;20418;-61
2022/07/22 05:32:46;;;;;;;33.00;10.18;;;;;;;19.60;100.00;98298.00;5061680;28;20032;-61
2022/07/22 05:35:11;;;;;;;28.45;9.60;;;;;;;19.99;100.00;98295.19;5061412;28;20782;-62
2022/07/22 05:37:37;;;;;;;31.98;10.77;;;;;;;20.07;100.00;98291.97;5061457;28;20036;-58
2022/07/22 05:40:03;;;;;;;46.00;11.15;;;;;;;20.42;100.00;98286.66;5060978;28;20114;-61
2022/07/22 05:42:28;;;;;;;32.75;10.27;;;;;;;20.31;100.00;98289.25;5061298;28;20140;-64
2022/07/22 05:44:54;;;;;;;36.22;10.35;;;;;;;21.03;100.00;98285.50;5062509;28;20123;-63
2022/07/22 05:47:19;;;;;;;38.55;10.85;;;;;;;22.10;100.00;98274.09;5061755;28;20680;-62
2022/07/22 05:49:44;;;;;;;28.83;9.63;;;;;;;22.80;100.00;98277.03;5061380;28;20017;-61
2022/07/22 05:52:10;;;;;;;31.45;9.82;;;;;;;26.24;100.00;98269.75;5060599;28;20694;-63
2022/07/22 05:54:35;;;;;;;27.42;9.05;;;;;;;27.53;98.89;98266.25;5061546;28;20021;-63
2022/07/22 05:57:01;;;;;;;26.90;9.88;;;;;;;30.31;65.69;98262.81;5061029;28;20511;-65
2022/07/22 05:59:26;;;;;;;24.00;8.75;;;;;;;30.69;59.77;98269.00;5062489;28;20036;-62
2022/07/22 06:01:52;;;;;;;23.90;8.75;;;;;;;31.90;53.79;98268.63;5060014;28;20155;-65
2022/07/22 06:04:17;;;;;;;24.02;8.88;;;;;;;30.82;55.98;98265.66;5061320;28;20048;-62
2022/07/22 06:06:42;;;;;;;21.15;8.25;;;;;;;30.51;56.32;98274.78;5061098;28;20033;-63
2022/07/22 06:09:08;;;;;;;25.73;8.52;;;;;;;32.14;50.39;98274.69;5060923;28;20048;-62
2022/07/22 06:11:33;;;;;;;19.38;7.80;;;;;;;32.56;49.45;98272.94;5059669;28;20044;-63
2022/07/22 06:13:59;;;;;;;19.27;8.00;;;;;;;33.04;47.98;98270.31;5061721;28;20024;-61
2022/07/22 06:16:24;;;;;;;18.92;7.80;;;;;;;33.02;47.44;98273.22;5060216;28;21054;-61
2022/07/22 06:18:49;;;;;;;18.80;7.60;;;;;;;31.73;48.96;98273.47;5060708;28;20040;-61
2022/07/22 06:21:14;;;;;;;18.85;7.57;;;;;;;33.98;44.43;98269.59;5059650;28;20043;-62
2022/07/22 06:23:40;;;;;;;18.05;7.60;;;;;;;33.95;44.05;98267.31;5060964;28;20036;-62
2022/07/22 06:26:05;;;;;;;17.85;6.80;;;;;;;32.72;46.67;98271.81;5060448;28;20508;-62
2022/07/22 06:28:31;;;;;;;17.55;7.40;;;;;;;33.72;44.72;98266.88;5060168;28;20126;-62
2022/07/22 06:30:56;;;;;;;18.75;7.13;;;;;;;33.80;44.23;98274.78;5059895;28;20047;-61
2022/07/22 06:33:22;;;;;;;18.13;7.53;;;;;;;34.69;42.47;98273.56;5061428;28;20035;-62
2022/07/22 06:35:47;;;;;;;20.38;7.25;;;;;;;33.47;43.54;98278.22;5060225;28;20446;-61
2022/07/22 06:38:12;;;;;;;16.13;6.80;;;;;;;35.69;39.96;98273.22;5060077;28;20420;-62
2022/07/22 06:40:38;;;;;;;25.73;7.28;;;;;;;31.72;47.39;98279.03;5059676;28;20483;-62
2022/07/22 06:43:03;;;;;;;16.30;7.45;;;;;;;32.77;45.52;98278.31;5060955;28;20060;-63
2022/07/22 06:45:29;;;;;;;17.33;7.00;;;;;;;35.01;41.49;98278.28;5060096;28;20120;-65
2022/07/22 06:47:55;;;;;;;16.08;7.03;;;;;;;35.68;39.52;98281.56;5059561;28;20023;-62
2022/07/22 06:50:20;;;;;;;15.30;7.00;;;;;;;35.43;40.74;98274.16;5059604;28;20028;-62
2022/07/22 06:52:46;;;;;;;15.68;6.78;;;;;;;34.60;41.67;98280.22;5060081;28;20017;-63
2022/07/22 06:55:11;;;;;;;13.32;7.10;;;;;;;31.20;48.06;98279.03;5060130;28;20028;-62
2022/07/22 06:57:36;;;;;;;15.25;6.68;;;;;;;34.16;43.23;98278.97;5060918;28;20025;-63
2022/07/22 07:00:05;;;;;;;23.52;7.78;;;;;;;33.56;44.03;98268.91;5059873;28;20115;-63
2022/07/22 07:02:30;;;;;;;17.65;6.93;;;;;;;35.86;40.16;98262.69;5059895;28;20518;-63
2022/07/22 07:04:56;;;;;;;14.18;6.60;;;;;;;34.19;42.73;98262.38;5059980;28;20038;-63
2022/07/22 07:07:21;;;;;;;13.52;6.38;;;;;;;34.90;41.40;98264.34;5059137;28;20439;-62
2022/07/22 07:09:46;;;;;;;12.35;5.93;;;;;;;33.90;43.16;98261.69;5060108;28;20024;-63
2022/07/22 07:12:12;;;;;;;15.07;6.47;;;;;;;34.56;42.77;98262.75;5058224;28;20658;-63
2022/07/22 07:14:37;;;;;;;13.82;6.43;;;;;;;36.45;39.17;98259.72;5059278;28;20564;-63
2022/07/22 07:17:03;;;;;;;17.70;7.28;;;;;;;34.37;41.25;98254.44;5058939;28;20193;-63
2022/07/22 07:19:28;;;;;;;12.52;5.85;;;;;;;35.16;42.54;98253.63;5059479;28;20028;-65
2022/07/22 07:21:53;;;;;;;14.85;6.38;;;;;;;35.90;40.61;98247.63;5058486;28;20032;-63
2022/07/22 07:24:19;;;;;;;14.10;6.20;;;;;;;35.01;41.24;98243.88;5060254;28;20120;-64
2022/07/22 07:26:44;;;;;;;13.52;6.13;;;;;;;35.32;40.50;98248.56;5060245;28;20044;-63
2022/07/22 07:29:09;;;;;;;13.85;5.90;;;;;;;35.90;39.52;98242.19;5060691;28;20067;-62
2022/07/22 07:31:35;;;;;;;15.60;6.53;;;;;;;36.14;39.88;98242.41;5058159;28;20055;-63
2022/07/22 07:34:00;;;;;;;12.73;5.82;;;;;;;36.90;38.65;98240.44;5059255;28;20490;-63
2022/07/22 07:36:25;;;;;;;13.10;5.80;;;;;;;35.98;39.71;98237.53;5059120;28;20131;-63
2022/07/22 07:38:51;;;;;;;12.90;6.03;;;;;;;36.42;38.70;98243.88;5058854;28;20055;-63
2022/07/22 07:41:17;;;;;;;12.32;6.07;;;;;;;35.90;40.24;98234.03;5058259;28;20094;-64
2022/07/22 07:43:43;;;;;;;12.57;5.78;;;;;;;38.16;36.76;98231.63;5059208;28;20046;-63
2022/07/22 07:46:08;;;;;;;11.88;5.55;;;;;;;36.94;36.95;98241.66;5057658;28;20044;-63
2022/07/22 07:48:33;;;;;;;16.27;5.95;;;;;;;36.47;37.55;98230.44;5058783;28;20135;-63
2022/07/22 07:50:59;;;;;;;12.52;5.60;;;;;;;36.74;36.62;98225.56;5058467;28;20047;-63
2022/07/22 07:53:24;;;;;;;12.80;5.50;;;;;;;37.53;35.59;98220.19;5058690;28;20464;-63
2022/07/22 07:55:50;;;;;;;11.90;5.38;;;;;;;38.12;35.54;98214.94;5058508;28;20323;-64
2022/07/22 07:58:15;;;;;;;10.43;5.20;;;;;;;39.61;33.85;98215.34;5059546;28;20028;-62
2022/07/22 08:00:42;;;;;;;12.65;5.22;;;;;;;37.23;36.09;98215.59;5058119;28;20130;-66
2022/07/22 08:03:08;;;;;;;14.93;4.93;;;;;;;37.73;36.18;98211.75;5059258;28;20043;-63
2022/07/22 08:05:34;;;;;;;12.88;5.43;;;;;;;38.02;34.61;98211.91;5058087;28;20040;-62
2022/07/22 08:07:59;;;;;;;11.98;5.50;;;;;;;36.71;36.10;98208.88;5058502;28;20068;-64
2022/07/22 08:10:26;;;;;;;9.32;4.85;;;;;;;39.53;33.10;98210.28;5058034;28;20035;-64
2022/07/22 08:12:53;;;;;;;12.15;5.30;;;;;;;37.66;35.75;98205.56;5058204;28;20036;-63
2022/07/22 08:15:19;;;;;;;13.13;5.45;;;;;;;37.68;35.60;98208.91;5059221;28;20024;-62
2022/07/22 08:17:44;;;;;;;12.07;5.88;;;;;;;34.86;39.21;98210.81;5058663;28;20043;-63
2022/07/22 08:20:10;;;;;;;17.38;6.30;;;;;;;36.94;36.52;98203.59;5055912;28;20039;-63
2022/07/22 08:22:35;;;;;;;9.93;5.00;;;;;;;37.45;34.88;98206.09;5058474;28;20028;-62
2022/07/22 08:25:01;;;;;;;21.80;5.93;;;;;;;39.13;33.04;98197.50;5057012;28;20477;-62
2022/07/22 08:27:26;;;;;;;13.40;5.40;;;;;;;39.06;33.41;98196.81;5057103;28;20032;-63
2022/07/22 08:29:52;;;;;;;15.25;5.32;;;;;;;40.09;32.87;98204.97;5058139;28;20086;-63
2022/07/22 08:32:18;;;;;;;11.27;5.25;;;;;;;37.45;35.20;98198.75;5057113;28;20071;-62
2022/07/22 08:34:43;;;;;;;10.02;5.18;;;;;;;37.52;34.70;98194.03;5058622;28;20028;-62
2022/07/22 08:37:08;;;;;;;10.15;5.13;;;;;;;37.74;34.70;98191.63;5057386;28;20659;-63
2022/07/22 08:39:34;;;;;;;11.07;5.13;;;;;;;38.94;34.07;98189.47;5058904;28;20040;-63
2022/07/22 08:42:00;;;;;;;14.15;5.50;;;;;;;36.40;36.30;98187.03;5056731;28;20036;-64
2022/07/22 08:44:29;;;;;;;18.30;5.30;;;;;;;37.89;34.70;98193.09;5057998;28;20090;-63
2022/07/22 08:46:55;;;;;;;12.02;5.28;;;;;;;38.70;32.98;98179.72;5058335;28;20044;-62
2022/07/22 08:49:20;;;;;;;12.15;5.30;;;;;;;39.16;32.28;98186.09;5058188;28;20102;-63
2022/07/22 08:51:46;;;;;;;12.32;5.38;;;;;;;38.89;32.59;98170.28;5056791;28;20048;-63
2022/07/22 08:54:11;;;;;;;10.07;4.93;;;;;;;35.97;35.51;98173.44;5058711;28;20493;-65
2022/07/22 08:56:38;;;;;;;11.82;5.60;;;;;;;35.14;38.04;98173.38;5058145;28;20810;-63
2022/07/22 08:59:04;;;;;;;11.35;5.22;;;;;;;36.95;34.05;98171.81;5059954;28;20417;-64
2022/07/22 09:01:29;;;;;;;13.30;5.63;;;;;;;37.89;34.32;98165.88;5060598;28;20927;-64
2022/07/22 09:03:57;;;;;;;10.45;5.43;;;;;;;39.70;30.84;98164.72;5062198;28;20474;-60
2022/07/22 09:06:33;;;;;;;11.48;5.35;;;;;;;35.08;36.46;98163.38;5060437;28;20047;-61
2022/07/22 09:09:05;;;;;;;13.88;4.90;;;;;;;39.87;31.33;98158.44;5061172;28;20513;-61
2022/07/22 09:11:31;;;;;;;13.82;5.30;;;;;;;38.46;32.95;98160.66;5061350;28;20399;-65
2022/07/22 09:14:00;;;;;;;11.30;5.20;;;;;;;37.86;33.58;98155.44;5062555;28;20804;-63
2022/07/22 09:16:45;;;;;;;10.10;5.10;;;;;;;37.01;33.71;98155.41;5061827;28;20874;-63
2022/07/22 09:19:12;;;;;;;12.10;5.07;;;;;;;37.79;33.56;98161.84;5061614;28;20032;-65
2022/07/22 09:21:40;;;;;;;11.35;5.05;;;;;;;36.66;33.47;98155.22;5061401;28;20319;-63
2022/07/22 09:24:06;;;;;;;10.55;4.97;;;;;;;39.38;30.67;98149.94;5061342;28;20021;-63
2022/07/22 09:26:39;;;;;;;14.43;5.78;;;;;;;35.83;35.04;98149.13;5061479;28;20464;-64
2022/07/22 09:29:06;;;;;;;10.65;5.00;;;;;;;37.05;33.88;98156.59;5061754;28;20024;-62
2022/07/22 09:31:36;;;;;;;13.88;5.35;;;;;;;38.77;32.48;98150.41;5060887;28;20330;-64
2022/07/22 09:34:04;;;;;;;13.68;5.15;;;;;;;38.10;33.48;98146.22;5062516;28;20035;-64
2022/07/22 09:36:30;;;;;;;10.90;5.30;;;;;;;37.67;33.15;98152.00;5050801;28;20060;-65
2022/07/22 09:38:56;;;;;;;11.55;5.20;;;;;;;36.57;33.82;98154.66;5060900;28;20032;-63
2022/07/22 09:41:22;;;;;;;12.32;5.30;;;;;;;37.22;33.20;98145.09;5060785;28;20047;-62
2022/07/22 09:43:47;;;;;;;10.85;4.88;;;;;;;36.43;33.37;98145.00;5061194;28;20025;-64
2022/07/22 09:46:13;;;;;;;10.63;5.32;;;;;;;35.82;34.53;98146.66;5061388;28;20041;-63
2022/07/22 09:48:40;;;;;;;10.55;5.15;;;;;;;35.30;35.18;98139.50;5061841;28;20077;-64
2022/07/22 09:51:06;;;;;;;12.45;5.47;;;;;;;36.74;33.96;98137.78;5060410;28;20044;-63
2022/07/22 09:53:32;;;;;;;13.63;5.82;;;;;;;35.04;36.60;98128.81;5061100;28;20365;-62
2022/07/22 09:56:00;;;;;;;12.07;5.57;;;;;;;38.58;30.99;98129.84;5060625;28;20060;-64
2022/07/22 09:58:26;;;;;;;15.18;5.70;;;;;;;35.10;35.35;98134.16;5061496;28;20101;-63
2022/07/22 10:00:53;;;;;;;11.63;5.72;;;;;;;35.85;35.04;98130.75;5060513;28;20052;-62
2022/07/22 10:03:28;;;;;;;20.00;6.72;;;;;;;38.07;33.14;98124.06;5053543;28;20039;-63
2022/07/22 10:05:54;;;;;;;13.75;5.65;;;;;;;37.86;32.93;98122.78;5062481;28;20037;-63
2022/07/22 10:08:20;;;;;;;11.02;5.25;;;;;;;36.64;32.88;98128.25;5063411;28;20326;-62
2022/07/22 10:10:46;;;;;;;12.95;5.07;;;;;;;36.57;32.47;98126.69;5061946;28;20558;-62
2022/07/22 10:13:11;;;;;;;12.30;5.28;;;;;;;36.65;33.62;98127.22;5064019;28;20528;-65
2022/07/22 10:15:38;;;;;;;13.45;5.40;;;;;;;36.09;33.00;98128.22;5063550;28;20048;-63
2022/07/22 10:18:25;;;;;;;12.45;5.13;;;;;;;37.53;30.69;98121.41;5063399;28;20130;-63
2022/07/22 10:21:01;;;;;;;10.43;4.55;;;;;;;37.64;30.65;98119.81;5061621;28;20040;-66
2022/07/22 10:23:26;;;;;;;11.07;4.55;;;;;;;36.96;31.64;98119.91;5063226;28;20060;-65
2022/07/22 10:25:58;;;;;;;10.48;4.80;;;;;;;38.13;29.90;98113.09;5062846;28;20068;-63
2022/07/22 10:28:35;;;;;;;12.57;4.75;;;;;;;37.17;31.78;98112.34;5062466;28;20698;-63
2022/07/22 10:31:23;;;;;;;10.80;4.65;;;;;;;38.14;29.89;98114.75;5061702;28;20048;-63
2022/07/22 10:33:57;;;;;;;9.25;4.57;;;;;;;37.50;31.59;98116.44;5062837;28;20074;-65
2022/07/22 10:36:34;;;;;;;9.35;4.75;;;;;;;36.72;31.70;98107.31;5062712;28;20128;-66
2022/07/22 10:39:26;;;;;;;8.20;4.47;;;;;;;35.75;33.16;98108.72;5062674;28;20043;-65
2022/07/22 10:41:52;;;;;;;12.05;4.78;;;;;;;34.93;33.52;98109.47;5061761;28;20040;-65
2022/07/22 10:44:46;;;;;;;12.00;5.30;;;;;;;34.70;33.99;98101.88;5063663;28;20024;-64
2022/07/22 10:47:12;;;;;;;11.52;5.13;;;;;;;35.38;33.05;98105.03;5062390;28;20044;-65
2022/07/22 10:49:37;;;;;;;12.82;4.82;;;;;;;35.70;33.19;98101.25;5061586;28;20024;-66
2022/07/22 10:52:10;;;;;;;11.90;5.00;;;;;;;36.40;32.20;98100.13;5062269;28;20044;-66
2022/07/22 10:55:13;;;;;;;10.32;4.90;;;;;;;37.42;31.72;98099.41;5063108;28;20889;-63
2022/07/22 10:57:38;;;;;;;9.90;4.75;;;;;;;37.09;32.51;98099.88;5060815;28;20090;-65
2022/07/22 11:00:05;;;;;;;16.17;5.65;;;;;;;36.64;31.94;98101.09;5061985;28;20024;-62
2022/07/22 11:02:32;;;;;;;11.65;4.50;;;;;;;36.84;32.46;98089.16;5061788;28;20040;-65
2022/07/22 11:04:57;;;;;;;12.48;5.18;;;;;;;36.78;31.38;98087.34;5062494;28;20027;-62
2022/07/22 11:07:23;;;;;;;12.85;5.28;;;;;;;36.79;32.40;98086.31;5061305;28;20040;-63
2022/07/22 11:09:48;;;;;;;12.65;5.35;;;;;;;35.05;32.93;98085.22;5063134;28;20028;-63
2022/07/22 11:12:13;;;;;;;10.45;4.68;;;;;;;36.84;31.85;98081.00;5061405;28;20500;-61
2022/07/22 11:14:39;;;;;;;10.65;4.47;;;;;;;36.19;32.39;98077.00;5061850;28;20121;-62
2022/07/22 11:17:10;;;;;;;9.80;4.72;;;;;;;36.24;34.10;98079.84;5061632;28;20044;-62